Historyczne dane pomiarowe

Dodano dane terminowe – wersja testowa.

Dane z okresu 1951-2019

Wersja bazy: 1.34 [2019-03-16, lista zmian], aktualizacja planowana na 2019-04-15

Dane meteo z obszaru Polski uzyskane na podstawie danych udostępnionych przez Instytut Meteorologii i Gospodarki Wodnej – Państwowy Instytut Badawczy.

 

Wybierz Datę:    

       

TemperaturaWilgotnośćWiatrCiśnienieOpadyŚniegCzas trwania zjawisk
 Stacja t tx tn tng RH VA  wxwx mslp ppp RRR   cm mm wxwxwxwxwxwxwx
1956-10-11 4.9 8.7 0.8 -1.9 74.8- 7.3 2.3---- 0.0------------
1956-10-12 7.5 10.9 4.8 4.1 78.8- 5.7 4.7---- 0.0------------
1956-10-13 9.4 10.5 5.9 2.2 76.3- 7.3 6.7---- 0.2------------
1956-10-14 7.3 10.6 4.9 6.7 79.3- 4.0 6.0---- 2.1------------
1956-10-15 5.1 9.9 1.4 0.0 81.5- 1.3 3.7---- 0.0------------
1956-10-16 3.4 8.4 0.4 -1.6 83.5- 1.3 3.0---- 0.0------------
1956-10-17 4.0 10.4 -2.4 -6.5 76.8- 0.0 1.0---- 0.0------------
1956-10-18 8.5 14.6 -2.2 -7.7 67.5- 5.0 2.0---- 0.0------------
1956-10-19 11.9 14.6 9.6 7.2 64.0- 7.7 3.3---- 0.0------------
1956-10-20 10.4 12.3 9.8 7.8 91.3- 8.0 2.3---- 2.8------------
1956-10-21 12.0 16.8 10.2 8.2 89.5- 3.0 3.0---- 0.0------------
1956-10-22 12.2 19.2 9.3 7.1 79.3- 2.7 3.0---- 0.0------------
1956-10-23 10.7 16.2 8.6 6.7 81.0- 1.3 2.7---- 0.0------------
1956-10-24 9.6 14.3 4.7 1.5 84.8- 5.0 1.7---- 0.0------------
1956-10-25 9.3 18.7 1.2 -0.9 72.0- 2.7 1.3---- 0.0------------
1956-10-26 11.0 18.6 1.5 -1.5 72.5- 1.3 1.7---- 0.0------------
1956-10-27 7.7 10.9 1.7 -0.6 81.5- 5.7 2.0---- 0.8------------
1956-10-28 10.4 12.4 8.3 6.7 74.5- 6.7 2.3---- 1.0------------
1956-10-29 5.8 10.5 3.8 -0.8 72.8- 5.3 2.0---- 0.0------------
1956-10-30 3.6 6.4 1.7 1.6 79.3- 8.0 3.3---- 0.2------------
1956-10-31 -5.0 1.8 -6.9 -2.9 72.5- 5.0 3.0---- 0.0------------
1956-11-01 -1.3 5.0-10.0-12.9 43.5- 1.3 2.0---- 0.0------------
1956-11-02 1.1 5.6 -1.7-13.1 63.8- 4.7 3.0---- 0.0------------
1956-11-03 -0.3 2.5 -3.0 -4.5 73.5- 7.0 2.3---- 0.0------------
1956-11-04 -2.0 2.6 -4.2 -7.2 71.5- 2.0 1.3---- 0.0------------
1956-11-05 0.3 4.0 -7.5-11.6 68.0- 5.3 2.7---- 3.0------------
1956-11-06 -0.1 3.0 -0.8 -2.4 78.3- 3.7 3.7---- 2.0-- 1---------
1956-11-07 -1.9 0.5 -3.6 -5.5 77.3- 5.0 5.3---- 3.0-- 3---------
1956-11-08 -7.6 -2.6-10.0-11.1 60.5- 0.3 3.3---- 0.0-- 6---------
1956-11-09 -7.3 -4.3-12.4-16.2 69.0- 0.3 3.3---- 0.1-- 6---------
128.3 ms

 

Źródłem pochodzenia danych jest Instytut Meteorologii i Gospodarki Wodnej – Państwowy Instytut Badawczy. Dane Instytutu Meteorologii i Gospodarki Wodnej – Państwowego Instytutu Badawczego zostały przetworzone.

Dane źródłowe można odnaleźć na stronie https://dane.imgw.pl